sensor_id;sensor_type;location;lat;lon;timestamp;P1;durP1;ratioP1;P2;durP2;ratioP2
25581;SDS011;13462;50.764;4.332;2023-09-18T00:00:21;11.55;;;8.63;;
25581;SDS011;13462;50.764;4.332;2023-09-18T00:02:49;14.73;;;8.55;;
25581;SDS011;13462;50.764;4.332;2023-09-18T00:05:15;16.17;;;9.38;;
25581;SDS011;13462;50.764;4.332;2023-09-18T00:07:41;14.18;;;9.23;;
25581;SDS011;13462;50.764;4.332;2023-09-18T00:10:08;12.90;;;8.25;;
25581;SDS011;13462;50.764;4.332;2023-09-18T00:12:38;10.88;;;7.82;;
25581;SDS011;13462;50.764;4.332;2023-09-18T00:15:05;10.60;;;7.68;;
25581;SDS011;13462;50.764;4.332;2023-09-18T00:17:33;11.43;;;7.85;;
25581;SDS011;13462;50.764;4.332;2023-09-18T00:20:00;12.15;;;8.55;;
25581;SDS011;13462;50.764;4.332;2023-09-18T00:22:26;11.73;;;8.52;;
25581;SDS011;13462;50.764;4.332;2023-09-18T00:24:51;11.77;;;8.57;;
25581;SDS011;13462;50.764;4.332;2023-09-18T00:27:17;14.48;;;8.52;;
25581;SDS011;13462;50.764;4.332;2023-09-18T00:29:43;11.60;;;9.13;;
25581;SDS011;13462;50.764;4.332;2023-09-18T00:32:08;16.02;;;9.63;;
25581;SDS011;13462;50.764;4.332;2023-09-18T00:34:34;16.08;;;9.57;;
25581;SDS011;13462;50.764;4.332;2023-09-18T00:36:59;14.05;;;9.52;;
25581;SDS011;13462;50.764;4.332;2023-09-18T00:39:25;18.67;;;10.23;;
25581;SDS011;13462;50.764;4.332;2023-09-18T00:41:51;18.65;;;9.88;;
25581;SDS011;13462;50.764;4.332;2023-09-18T00:44:22;18.95;;;10.73;;
25581;SDS011;13462;50.764;4.332;2023-09-18T00:46:49;14.20;;;10.15;;
25581;SDS011;13462;50.764;4.332;2023-09-18T00:49:15;13.90;;;10.75;;
25581;SDS011;13462;50.764;4.332;2023-09-18T00:51:43;16.15;;;11.30;;
25581;SDS011;13462;50.764;4.332;2023-09-18T00:54:09;13.68;;;10.30;;
25581;SDS011;13462;50.764;4.332;2023-09-18T00:56:36;13.95;;;9.93;;
25581;SDS011;13462;50.764;4.332;2023-09-18T00:59:02;15.20;;;9.52;;
25581;SDS011;13462;50.764;4.332;2023-09-18T01:01:28;12.90;;;9.52;;
25581;SDS011;13462;50.764;4.332;2023-09-18T01:03:54;13.82;;;9.40;;
25581;SDS011;13462;50.764;4.332;2023-09-18T01:06:24;16.92;;;9.57;;
25581;SDS011;13462;50.764;4.332;2023-09-18T01:08:53;11.02;;;8.57;;
25581;SDS011;13462;50.764;4.332;2023-09-18T01:11:22;12.57;;;7.95;;
25581;SDS011;13462;50.764;4.332;2023-09-18T01:14:39;11.50;;;7.97;;
25581;SDS011;13462;50.764;4.332;2023-09-18T01:17:09;11.32;;;8.20;;
25581;SDS011;13462;50.764;4.332;2023-09-18T01:22:08;13.82;;;8.45;;
25581;SDS011;13462;50.764;4.332;2023-09-18T01:24:35;12.75;;;8.32;;
25581;SDS011;13462;50.764;4.332;2023-09-18T01:27:02;12.45;;;8.63;;
25581;SDS011;13462;50.764;4.332;2023-09-18T01:29:31;11.52;;;9.00;;
25581;SDS011;13462;50.764;4.332;2023-09-18T01:31:56;11.02;;;8.45;;
25581;SDS011;13462;50.764;4.332;2023-09-18T01:34:25;12.27;;;9.50;;
25581;SDS011;13462;50.764;4.332;2023-09-18T01:36:53;12.30;;;9.48;;
25581;SDS011;13462;50.764;4.332;2023-09-18T01:39:21;12.45;;;9.25;;
25581;SDS011;13462;50.764;4.332;2023-09-18T01:41:47;13.15;;;9.93;;
25581;SDS011;13462;50.764;4.332;2023-09-18T01:44:13;14.20;;;9.95;;
25581;SDS011;13462;50.764;4.332;2023-09-18T01:46:39;14.90;;;10.13;;
25581;SDS011;13462;50.764;4.332;2023-09-18T01:49:05;22.00;;;11.43;;
25581;SDS011;13462;50.764;4.332;2023-09-18T01:51:31;16.13;;;10.85;;
25581;SDS011;13462;50.764;4.332;2023-09-18T01:53:57;17.10;;;11.23;;
25581;SDS011;13462;50.764;4.332;2023-09-18T01:56:23;17.70;;;10.50;;
25581;SDS011;13462;50.764;4.332;2023-09-18T01:58:49;17.17;;;11.30;;
25581;SDS011;13462;50.764;4.332;2023-09-18T02:01:15;16.55;;;11.32;;
25581;SDS011;13462;50.764;4.332;2023-09-18T02:03:40;17.42;;;11.05;;
25581;SDS011;13462;50.764;4.332;2023-09-18T02:06:06;13.75;;;10.80;;
25581;SDS011;13462;50.764;4.332;2023-09-18T02:08:35;19.50;;;12.23;;
25581;SDS011;13462;50.764;4.332;2023-09-18T02:11:01;19.67;;;12.25;;
25581;SDS011;13462;50.764;4.332;2023-09-18T02:13:28;16.38;;;11.98;;
25581;SDS011;13462;50.764;4.332;2023-09-18T02:15:54;13.48;;;10.93;;
25581;SDS011;13462;50.764;4.332;2023-09-18T02:18:20;14.90;;;10.57;;
25581;SDS011;13462;50.764;4.332;2023-09-18T02:20:46;16.20;;;11.07;;
25581;SDS011;13462;50.764;4.332;2023-09-18T02:23:14;17.30;;;10.10;;
25581;SDS011;13462;50.764;4.332;2023-09-18T02:25:40;12.07;;;9.27;;
25581;SDS011;13462;50.764;4.332;2023-09-18T02:28:06;12.25;;;8.73;;
25581;SDS011;13462;50.764;4.332;2023-09-18T02:30:32;9.90;;;8.25;;
25581;SDS011;13462;50.764;4.332;2023-09-18T02:32:58;17.17;;;8.68;;
25581;SDS011;13462;50.764;4.332;2023-09-18T02:35:24;9.13;;;7.47;;
25581;SDS011;13462;50.764;4.332;2023-09-18T02:37:50;10.43;;;7.43;;
25581;SDS011;13462;50.764;4.332;2023-09-18T02:40:16;16.20;;;7.65;;
25581;SDS011;13462;50.764;4.332;2023-09-18T02:42:41;9.43;;;6.50;;
25581;SDS011;13462;50.764;4.332;2023-09-18T02:45:07;12.30;;;7.40;;
25581;SDS011;13462;50.764;4.332;2023-09-18T02:47:34;9.30;;;7.05;;
25581;SDS011;13462;50.764;4.332;2023-09-18T02:50:02;11.57;;;7.78;;
25581;SDS011;13462;50.764;4.332;2023-09-18T02:52:30;15.68;;;6.85;;
25581;SDS011;13462;50.764;4.332;2023-09-18T02:54:55;10.35;;;6.40;;
25581;SDS011;13462;50.764;4.332;2023-09-18T02:57:21;13.63;;;6.80;;
25581;SDS011;13462;50.764;4.332;2023-09-18T02:59:47;8.05;;;5.90;;
25581;SDS011;13462;50.764;4.332;2023-09-18T03:02:12;10.88;;;5.70;;
25581;SDS011;13462;50.764;4.332;2023-09-18T03:04:38;9.32;;;5.95;;
25581;SDS011;13462;50.764;4.332;2023-09-18T03:07:03;9.25;;;5.78;;
25581;SDS011;13462;50.764;4.332;2023-09-18T03:09:30;6.10;;;5.40;;
25581;SDS011;13462;50.764;4.332;2023-09-18T03:11:55;10.85;;;5.50;;
25581;SDS011;13462;50.764;4.332;2023-09-18T03:14:21;7.78;;;5.43;;
25581;SDS011;13462;50.764;4.332;2023-09-18T03:16:46;6.97;;;4.63;;
25581;SDS011;13462;50.764;4.332;2023-09-18T03:19:12;6.88;;;5.15;;
25581;SDS011;13462;50.764;4.332;2023-09-18T03:21:38;6.20;;;5.20;;
25581;SDS011;13462;50.764;4.332;2023-09-18T03:24:03;7.00;;;5.00;;
25581;SDS011;13462;50.764;4.332;2023-09-18T03:26:29;6.72;;;5.15;;
25581;SDS011;13462;50.764;4.332;2023-09-18T03:28:55;5.63;;;4.85;;
25581;SDS011;13462;50.764;4.332;2023-09-18T03:31:21;8.93;;;4.90;;
25581;SDS011;13462;50.764;4.332;2023-09-18T03:33:46;10.05;;;5.80;;
25581;SDS011;13462;50.764;4.332;2023-09-18T03:36:12;7.50;;;6.00;;
25581;SDS011;13462;50.764;4.332;2023-09-18T03:38:38;14.05;;;6.70;;
25581;SDS011;13462;50.764;4.332;2023-09-18T03:41:04;14.98;;;7.80;;
25581;SDS011;13462;50.764;4.332;2023-09-18T03:43:30;15.00;;;8.25;;
25581;SDS011;13462;50.764;4.332;2023-09-18T03:46:02;18.38;;;8.00;;
25581;SDS011;13462;50.764;4.332;2023-09-18T03:48:29;16.27;;;8.60;;
25581;SDS011;13462;50.764;4.332;2023-09-18T03:51:01;14.20;;;7.75;;
25581;SDS011;13462;50.764;4.332;2023-09-18T03:53:26;14.43;;;7.70;;
25581;SDS011;13462;50.764;4.332;2023-09-18T03:55:52;14.50;;;7.35;;
25581;SDS011;13462;50.764;4.332;2023-09-18T03:58:18;12.07;;;6.68;;
25581;SDS011;13462;50.764;4.332;2023-09-18T04:00:43;13.68;;;6.72;;
25581;SDS011;13462;50.764;4.332;2023-09-18T04:03:09;8.63;;;5.50;;
25581;SDS011;13462;50.764;4.332;2023-09-18T04:05:34;8.65;;;5.95;;
25581;SDS011;13462;50.764;4.332;2023-09-18T04:08:00;10.68;;;5.45;;
25581;SDS011;13462;50.764;4.332;2023-09-18T04:10:26;7.43;;;4.30;;
25581;SDS011;13462;50.764;4.332;2023-09-18T04:12:51;8.00;;;3.75;;
25581;SDS011;13462;50.764;4.332;2023-09-18T04:15:17;6.70;;;3.38;;
25581;SDS011;13462;50.764;4.332;2023-09-18T04:17:45;6.18;;;3.63;;
25581;SDS011;13462;50.764;4.332;2023-09-18T04:20:10;6.63;;;3.30;;
25581;SDS011;13462;50.764;4.332;2023-09-18T04:22:41;6.53;;;2.97;;
25581;SDS011;13462;50.764;4.332;2023-09-18T04:27:35;4.88;;;2.70;;
25581;SDS011;13462;50.764;4.332;2023-09-18T04:30:01;4.70;;;2.72;;
25581;SDS011;13462;50.764;4.332;2023-09-18T04:32:29;2.72;;;2.40;;
25581;SDS011;13462;50.764;4.332;2023-09-18T04:34:55;3.15;;;2.20;;
25581;SDS011;13462;50.764;4.332;2023-09-18T04:37:21;8.77;;;2.28;;
25581;SDS011;13462;50.764;4.332;2023-09-18T04:39:47;4.75;;;2.70;;
25581;SDS011;13462;50.764;4.332;2023-09-18T04:42:12;4.95;;;2.33;;
25581;SDS011;13462;50.764;4.332;2023-09-18T04:44:38;6.13;;;2.53;;
25581;SDS011;13462;50.764;4.332;2023-09-18T04:47:03;3.63;;;2.40;;
25581;SDS011;13462;50.764;4.332;2023-09-18T04:49:29;4.35;;;2.45;;
25581;SDS011;13462;50.764;4.332;2023-09-18T04:51:55;5.10;;;2.70;;
25581;SDS011;13462;50.764;4.332;2023-09-18T04:54:20;4.82;;;2.90;;
25581;SDS011;13462;50.764;4.332;2023-09-18T04:56:46;9.77;;;2.88;;
25581;SDS011;13462;50.764;4.332;2023-09-18T04:59:12;6.38;;;2.50;;
25581;SDS011;13462;50.764;4.332;2023-09-18T05:01:38;5.50;;;2.78;;
25581;SDS011;13462;50.764;4.332;2023-09-18T05:04:03;5.95;;;2.60;;
25581;SDS011;13462;50.764;4.332;2023-09-18T05:06:29;6.32;;;2.92;;
25581;SDS011;13462;50.764;4.332;2023-09-18T05:08:55;5.63;;;2.90;;
25581;SDS011;13462;50.764;4.332;2023-09-18T05:11:21;4.80;;;2.63;;
25581;SDS011;13462;50.764;4.332;2023-09-18T05:13:46;5.78;;;2.78;;
25581;SDS011;13462;50.764;4.332;2023-09-18T05:16:12;4.28;;;2.78;;
25581;SDS011;13462;50.764;4.332;2023-09-18T05:18:38;3.58;;;2.88;;
25581;SDS011;13462;50.764;4.332;2023-09-18T05:21:05;6.35;;;2.88;;
25581;SDS011;13462;50.764;4.332;2023-09-18T05:23:32;4.32;;;2.70;;
25581;SDS011;13462;50.764;4.332;2023-09-18T05:26:00;3.97;;;2.35;;
25581;SDS011;13462;50.764;4.332;2023-09-18T05:28:26;4.32;;;2.80;;
25581;SDS011;13462;50.764;4.332;2023-09-18T05:30:52;4.88;;;3.05;;
25581;SDS011;13462;50.764;4.332;2023-09-18T05:33:18;3.15;;;2.65;;
25581;SDS011;13462;50.764;4.332;2023-09-18T05:35:45;4.75;;;2.67;;
25581;SDS011;13462;50.764;4.332;2023-09-18T05:38:11;5.93;;;2.60;;
25581;SDS011;13462;50.764;4.332;2023-09-18T05:40:42;5.10;;;3.05;;
25581;SDS011;13462;50.764;4.332;2023-09-18T05:43:10;6.38;;;2.88;;
25581;SDS011;13462;50.764;4.332;2023-09-18T05:45:36;4.43;;;2.38;;
25581;SDS011;13462;50.764;4.332;2023-09-18T05:48:03;5.13;;;2.60;;
25581;SDS011;13462;50.764;4.332;2023-09-18T05:50:29;5.38;;;2.88;;
25581;SDS011;13462;50.764;4.332;2023-09-18T05:52:56;7.28;;;2.83;;
25581;SDS011;13462;50.764;4.332;2023-09-18T05:55:28;7.45;;;2.70;;
25581;SDS011;13462;50.764;4.332;2023-09-18T05:57:55;6.85;;;3.28;;
25581;SDS011;13462;50.764;4.332;2023-09-18T06:00:20;4.55;;;2.50;;
25581;SDS011;13462;50.764;4.332;2023-09-18T06:02:46;5.55;;;2.72;;
25581;SDS011;13462;50.764;4.332;2023-09-18T06:05:13;8.27;;;3.00;;
25581;SDS011;13462;50.764;4.332;2023-09-18T06:07:41;5.07;;;2.95;;
25581;SDS011;13462;50.764;4.332;2023-09-18T06:10:06;5.32;;;3.08;;
25581;SDS011;13462;50.764;4.332;2023-09-18T06:12:32;6.93;;;3.15;;
25581;SDS011;13462;50.764;4.332;2023-09-18T06:14:58;5.35;;;2.80;;
25581;SDS011;13462;50.764;4.332;2023-09-18T06:17:24;8.48;;;3.35;;
25581;SDS011;13462;50.764;4.332;2023-09-18T06:19:49;6.00;;;3.45;;
25581;SDS011;13462;50.764;4.332;2023-09-18T06:22:16;6.40;;;2.95;;
25581;SDS011;13462;50.764;4.332;2023-09-18T06:24:42;10.30;;;3.70;;
25581;SDS011;13462;50.764;4.332;2023-09-18T06:27:08;6.78;;;3.00;;
25581;SDS011;13462;50.764;4.332;2023-09-18T06:29:33;7.70;;;3.65;;
25581;SDS011;13462;50.764;4.332;2023-09-18T06:32:00;8.80;;;3.22;;
25581;SDS011;13462;50.764;4.332;2023-09-18T06:34:26;7.78;;;3.88;;
25581;SDS011;13462;50.764;4.332;2023-09-18T06:36:53;5.60;;;3.10;;
25581;SDS011;13462;50.764;4.332;2023-09-18T06:39:19;5.25;;;3.72;;
25581;SDS011;13462;50.764;4.332;2023-09-18T06:41:47;6.60;;;3.70;;
25581;SDS011;13462;50.764;4.332;2023-09-18T06:44:13;5.55;;;3.90;;
25581;SDS011;13462;50.764;4.332;2023-09-18T06:46:38;6.47;;;3.72;;
25581;SDS011;13462;50.764;4.332;2023-09-18T06:49:04;10.18;;;4.32;;
25581;SDS011;13462;50.764;4.332;2023-09-18T06:51:30;9.95;;;4.30;;
25581;SDS011;13462;50.764;4.332;2023-09-18T06:53:56;7.20;;;4.15;;
25581;SDS011;13462;50.764;4.332;2023-09-18T06:56:22;12.68;;;4.90;;
25581;SDS011;13462;50.764;4.332;2023-09-18T06:58:49;12.13;;;5.15;;
25581;SDS011;13462;50.764;4.332;2023-09-18T07:01:16;10.48;;;5.03;;
25581;SDS011;13462;50.764;4.332;2023-09-18T07:03:46;9.70;;;4.53;;
25581;SDS011;13462;50.764;4.332;2023-09-18T07:06:13;6.93;;;4.22;;
25581;SDS011;13462;50.764;4.332;2023-09-18T07:08:41;9.13;;;4.47;;
25581;SDS011;13462;50.764;4.332;2023-09-18T07:11:09;8.73;;;4.78;;
25581;SDS011;13462;50.764;4.332;2023-09-18T07:13:36;7.38;;;4.13;;
25581;SDS011;13462;50.764;4.332;2023-09-18T07:16:03;8.10;;;4.10;;
25581;SDS011;13462;50.764;4.332;2023-09-18T07:18:29;6.63;;;5.03;;
25581;SDS011;13462;50.764;4.332;2023-09-18T07:20:54;7.45;;;3.85;;
25581;SDS011;13462;50.764;4.332;2023-09-18T07:23:20;7.90;;;4.28;;
25581;SDS011;13462;50.764;4.332;2023-09-18T07:25:48;8.75;;;3.80;;
25581;SDS011;13462;50.764;4.332;2023-09-18T07:28:14;6.55;;;4.18;;
25581;SDS011;13462;50.764;4.332;2023-09-18T07:30:43;5.07;;;3.67;;
25581;SDS011;13462;50.764;4.332;2023-09-18T07:33:14;7.93;;;3.80;;
25581;SDS011;13462;50.764;4.332;2023-09-18T07:35:42;5.45;;;3.03;;
25581;SDS011;13462;50.764;4.332;2023-09-18T07:38:12;9.55;;;3.20;;
25581;SDS011;13462;50.764;4.332;2023-09-18T07:40:37;5.10;;;3.42;;
25581;SDS011;13462;50.764;4.332;2023-09-18T07:43:03;7.13;;;3.35;;
25581;SDS011;13462;50.764;4.332;2023-09-18T07:45:29;3.97;;;2.97;;
25581;SDS011;13462;50.764;4.332;2023-09-18T07:47:54;5.60;;;2.92;;
25581;SDS011;13462;50.764;4.332;2023-09-18T07:50:20;8.98;;;3.13;;
25581;SDS011;13462;50.764;4.332;2023-09-18T07:52:45;5.45;;;2.75;;
25581;SDS011;13462;50.764;4.332;2023-09-18T07:55:11;5.25;;;2.88;;
25581;SDS011;13462;50.764;4.332;2023-09-18T07:57:37;8.18;;;3.13;;
25581;SDS011;13462;50.764;4.332;2023-09-18T08:00:03;5.38;;;2.83;;
25581;SDS011;13462;50.764;4.332;2023-09-18T08:02:37;5.47;;;3.00;;
25581;SDS011;13462;50.764;4.332;2023-09-18T08:05:06;8.43;;;3.20;;
25581;SDS011;13462;50.764;4.332;2023-09-18T08:07:33;6.88;;;3.50;;
25581;SDS011;13462;50.764;4.332;2023-09-18T08:10:00;4.95;;;3.13;;
25581;SDS011;13462;50.764;4.332;2023-09-18T08:12:27;6.72;;;3.38;;
25581;SDS011;13462;50.764;4.332;2023-09-18T08:14:52;5.95;;;3.72;;
25581;SDS011;13462;50.764;4.332;2023-09-18T08:17:18;6.55;;;3.70;;
25581;SDS011;13462;50.764;4.332;2023-09-18T08:19:44;7.35;;;4.13;;
25581;SDS011;13462;50.764;4.332;2023-09-18T08:22:09;9.38;;;4.05;;
25581;SDS011;13462;50.764;4.332;2023-09-18T08:24:40;9.63;;;3.90;;
25581;SDS011;13462;50.764;4.332;2023-09-18T08:27:05;6.03;;;3.72;;
25581;SDS011;13462;50.764;4.332;2023-09-18T08:29:31;6.60;;;3.85;;
25581;SDS011;13462;50.764;4.332;2023-09-18T08:32:00;7.90;;;4.15;;
25581;SDS011;13462;50.764;4.332;2023-09-18T08:34:25;6.13;;;3.92;;
25581;SDS011;13462;50.764;4.332;2023-09-18T08:36:52;10.82;;;4.93;;
25581;SDS011;13462;50.764;4.332;2023-09-18T08:39:17;9.25;;;4.15;;
25581;SDS011;13462;50.764;4.332;2023-09-18T08:41:43;8.43;;;4.30;;
25581;SDS011;13462;50.764;4.332;2023-09-18T08:44:14;7.50;;;4.97;;
25581;SDS011;13462;50.764;4.332;2023-09-18T08:46:40;6.25;;;4.85;;
25581;SDS011;13462;50.764;4.332;2023-09-18T08:49:06;8.82;;;4.60;;
25581;SDS011;13462;50.764;4.332;2023-09-18T08:51:33;12.35;;;5.93;;
25581;SDS011;13462;50.764;4.332;2023-09-18T08:54:07;10.93;;;5.63;;
25581;SDS011;13462;50.764;4.332;2023-09-18T08:56:33;8.57;;;5.97;;
25581;SDS011;13462;50.764;4.332;2023-09-18T08:58:59;9.18;;;5.53;;
25581;SDS011;13462;50.764;4.332;2023-09-18T09:01:25;12.50;;;6.28;;
25581;SDS011;13462;50.764;4.332;2023-09-18T09:03:51;9.07;;;5.60;;
25581;SDS011;13462;50.764;4.332;2023-09-18T09:06:16;13.90;;;5.57;;
25581;SDS011;13462;50.764;4.332;2023-09-18T09:08:42;9.55;;;6.38;;
25581;SDS011;13462;50.764;4.332;2023-09-18T09:11:08;10.07;;;6.47;;
25581;SDS011;13462;50.764;4.332;2023-09-18T09:13:34;10.88;;;6.80;;
25581;SDS011;13462;50.764;4.332;2023-09-18T09:15:59;9.43;;;6.90;;
25581;SDS011;13462;50.764;4.332;2023-09-18T09:18:28;11.77;;;6.82;;
25581;SDS011;13462;50.764;4.332;2023-09-18T09:21:00;9.60;;;6.63;;
25581;SDS011;13462;50.764;4.332;2023-09-18T09:23:29;11.35;;;7.32;;
25581;SDS011;13462;50.764;4.332;2023-09-18T09:28:38;10.70;;;7.72;;
25581;SDS011;13462;50.764;4.332;2023-09-18T09:31:04;9.88;;;7.00;;
25581;SDS011;13462;50.764;4.332;2023-09-18T09:33:31;7.60;;;6.45;;
25581;SDS011;13462;50.764;4.332;2023-09-18T09:35:57;10.82;;;6.78;;
25581;SDS011;13462;50.764;4.332;2023-09-18T09:38:30;15.82;;;6.30;;
25581;SDS011;13462;50.764;4.332;2023-09-18T09:40:57;7.10;;;5.43;;
25581;SDS011;13462;50.764;4.332;2023-09-18T09:43:24;10.52;;;5.57;;
25581;SDS011;13462;50.764;4.332;2023-09-18T09:45:56;6.07;;;5.05;;
25581;SDS011;13462;50.764;4.332;2023-09-18T09:48:30;8.40;;;6.20;;
25581;SDS011;13462;50.764;4.332;2023-09-18T09:50:57;8.82;;;4.90;;
25581;SDS011;13462;50.764;4.332;2023-09-18T09:53:41;10.90;;;5.78;;
25581;SDS011;13462;50.764;4.332;2023-09-18T09:56:08;9.10;;;5.30;;
25581;SDS011;13462;50.764;4.332;2023-09-18T09:58:34;7.45;;;5.20;;
25581;SDS011;13462;50.764;4.332;2023-09-18T10:01:02;8.70;;;6.10;;
25581;SDS011;13462;50.764;4.332;2023-09-18T10:03:30;11.65;;;5.15;;
25581;SDS011;13462;50.764;4.332;2023-09-18T10:05:58;12.40;;;5.53;;
25581;SDS011;13462;50.764;4.332;2023-09-18T10:08:26;7.30;;;5.38;;
25581;SDS011;13462;50.764;4.332;2023-09-18T10:10:56;13.27;;;5.50;;
25581;SDS011;13462;50.764;4.332;2023-09-18T10:13:34;11.13;;;5.88;;
25581;SDS011;13462;50.764;4.332;2023-09-18T10:16:19;8.77;;;5.47;;
25581;SDS011;13462;50.764;4.332;2023-09-18T10:21:44;7.15;;;5.35;;
25581;SDS011;13462;50.764;4.332;2023-09-18T10:24:25;11.98;;;6.10;;
25581;SDS011;13462;50.764;4.332;2023-09-18T10:26:57;8.48;;;5.90;;
25581;SDS011;13462;50.764;4.332;2023-09-18T10:29:25;8.13;;;5.60;;
25581;SDS011;13462;50.764;4.332;2023-09-18T10:31:51;7.82;;;6.00;;
25581;SDS011;13462;50.764;4.332;2023-09-18T10:34:18;12.95;;;6.70;;
25581;SDS011;13462;50.764;4.332;2023-09-18T10:36:46;7.03;;;5.60;;
25581;SDS011;13462;50.764;4.332;2023-09-18T10:39:12;7.82;;;5.80;;
25581;SDS011;13462;50.764;4.332;2023-09-18T10:41:38;6.90;;;5.88;;
25581;SDS011;13462;50.764;4.332;2023-09-18T10:44:06;7.70;;;4.95;;
25581;SDS011;13462;50.764;4.332;2023-09-18T10:46:32;12.88;;;6.07;;
25581;SDS011;13462;50.764;4.332;2023-09-18T10:48:59;6.15;;;4.43;;
25581;SDS011;13462;50.764;4.332;2023-09-18T10:51:25;9.10;;;4.68;;
25581;SDS011;13462;50.764;4.332;2023-09-18T10:53:52;6.40;;;4.65;;
25581;SDS011;13462;50.764;4.332;2023-09-18T10:56:20;7.63;;;4.22;;
25581;SDS011;13462;50.764;4.332;2023-09-18T10:58:46;7.72;;;4.63;;
25581;SDS011;13462;50.764;4.332;2023-09-18T11:01:23;5.30;;;3.92;;
25581;SDS011;13462;50.764;4.332;2023-09-18T11:03:49;4.82;;;3.72;;
25581;SDS011;13462;50.764;4.332;2023-09-18T11:06:15;8.15;;;3.72;;
25581;SDS011;13462;50.764;4.332;2023-09-18T11:08:46;5.00;;;3.60;;
25581;SDS011;13462;50.764;4.332;2023-09-18T11:11:17;8.80;;;3.65;;
25581;SDS011;13462;50.764;4.332;2023-09-18T11:13:48;5.25;;;3.35;;
25581;SDS011;13462;50.764;4.332;2023-09-18T11:21:33;3.65;;;3.13;;
25581;SDS011;13462;50.764;4.332;2023-09-18T11:24:01;6.40;;;3.40;;
25581;SDS011;13462;50.764;4.332;2023-09-18T11:26:30;4.15;;;3.33;;
25581;SDS011;13462;50.764;4.332;2023-09-18T11:29:00;9.27;;;4.13;;
25581;SDS011;13462;50.764;4.332;2023-09-18T11:34:29;7.05;;;3.95;;
25581;SDS011;13462;50.764;4.332;2023-09-18T11:37:02;4.18;;;3.10;;
25581;SDS011;13462;50.764;4.332;2023-09-18T11:39:43;5.75;;;3.67;;
25581;SDS011;13462;50.764;4.332;2023-09-18T11:42:11;4.72;;;3.30;;
25581;SDS011;13462;50.764;4.332;2023-09-18T11:44:41;5.15;;;3.00;;
25581;SDS011;13462;50.764;4.332;2023-09-18T11:47:07;6.68;;;2.90;;
25581;SDS011;13462;50.764;4.332;2023-09-18T11:49:37;4.07;;;3.28;;
25581;SDS011;13462;50.764;4.332;2023-09-18T11:52:07;6.67;;;3.30;;
25581;SDS011;13462;50.764;4.332;2023-09-18T11:54:34;6.30;;;3.17;;
25581;SDS011;13462;50.764;4.332;2023-09-18T11:57:03;4.40;;;2.75;;
25581;SDS011;13462;50.764;4.332;2023-09-18T11:59:39;4.78;;;3.05;;
25581;SDS011;13462;50.764;4.332;2023-09-18T12:02:07;4.18;;;2.83;;
25581;SDS011;13462;50.764;4.332;2023-09-18T12:04:35;3.92;;;2.55;;
25581;SDS011;13462;50.764;4.332;2023-09-18T12:07:03;6.85;;;2.88;;
25581;SDS011;13462;50.764;4.332;2023-09-18T12:09:30;3.55;;;2.88;;
25581;SDS011;13462;50.764;4.332;2023-09-18T12:11:57;6.10;;;3.03;;
25581;SDS011;13462;50.764;4.332;2023-09-18T12:14:32;4.57;;;2.83;;
25581;SDS011;13462;50.764;4.332;2023-09-18T12:17:01;3.90;;;3.08;;
25581;SDS011;13462;50.764;4.332;2023-09-18T12:19:29;3.50;;;2.83;;
25581;SDS011;13462;50.764;4.332;2023-09-18T12:21:55;10.13;;;2.97;;
25581;SDS011;13462;50.764;4.332;2023-09-18T12:24:24;5.03;;;2.70;;
25581;SDS011;13462;50.764;4.332;2023-09-18T12:26:51;5.72;;;2.88;;
25581;SDS011;13462;50.764;4.332;2023-09-18T12:29:17;4.93;;;2.80;;
25581;SDS011;13462;50.764;4.332;2023-09-18T12:31:43;4.53;;;2.50;;
25581;SDS011;13462;50.764;4.332;2023-09-18T12:34:28;3.72;;;2.70;;
25581;SDS011;13462;50.764;4.332;2023-09-18T12:36:54;4.25;;;2.80;;
25581;SDS011;13462;50.764;4.332;2023-09-18T12:39:20;4.70;;;2.65;;
25581;SDS011;13462;50.764;4.332;2023-09-18T12:41:46;7.85;;;3.03;;
25581;SDS011;13462;50.764;4.332;2023-09-18T12:44:12;6.20;;;2.78;;
25581;SDS011;13462;50.764;4.332;2023-09-18T12:46:42;4.55;;;2.15;;
25581;SDS011;13462;50.764;4.332;2023-09-18T12:49:21;2.63;;;2.35;;
25581;SDS011;13462;50.764;4.332;2023-09-18T12:52:00;6.70;;;2.80;;
25581;SDS011;13462;50.764;4.332;2023-09-18T12:57:04;3.28;;;2.53;;
25581;SDS011;13462;50.764;4.332;2023-09-18T12:59:31;4.10;;;2.40;;
25581;SDS011;13462;50.764;4.332;2023-09-18T13:02:02;4.07;;;2.27;;
25581;SDS011;13462;50.764;4.332;2023-09-18T13:04:32;3.63;;;2.30;;
25581;SDS011;13462;50.764;4.332;2023-09-18T13:07:11;4.03;;;2.65;;
25581;SDS011;13462;50.764;4.332;2023-09-18T13:09:39;3.85;;;2.70;;
25581;SDS011;13462;50.764;4.332;2023-09-18T13:12:05;4.75;;;2.95;;
25581;SDS011;13462;50.764;4.332;2023-09-18T13:14:56;5.22;;;2.90;;
25581;SDS011;13462;50.764;4.332;2023-09-18T13:17:36;2.95;;;2.17;;
25581;SDS011;13462;50.764;4.332;2023-09-18T13:20:07;9.18;;;2.72;;
25581;SDS011;13462;50.764;4.332;2023-09-18T13:22:47;3.53;;;2.75;;
25581;SDS011;13462;50.764;4.332;2023-09-18T13:25:18;4.00;;;2.55;;
25581;SDS011;13462;50.764;4.332;2023-09-18T13:27:51;4.40;;;2.33;;
25581;SDS011;13462;50.764;4.332;2023-09-18T13:30:18;3.78;;;2.28;;
25581;SDS011;13462;50.764;4.332;2023-09-18T13:32:45;4.65;;;2.42;;
25581;SDS011;13462;50.764;4.332;2023-09-18T13:35:17;6.53;;;2.60;;
25581;SDS011;13462;50.764;4.332;2023-09-18T13:37:44;6.28;;;3.13;;
25581;SDS011;13462;50.764;4.332;2023-09-18T13:40:10;5.47;;;2.58;;
25581;SDS011;13462;50.764;4.332;2023-09-18T13:42:37;4.80;;;2.60;;
25581;SDS011;13462;50.764;4.332;2023-09-18T13:45:04;5.53;;;2.90;;
25581;SDS011;13462;50.764;4.332;2023-09-18T13:47:31;3.95;;;2.63;;
25581;SDS011;13462;50.764;4.332;2023-09-18T13:49:57;5.80;;;2.72;;
25581;SDS011;13462;50.764;4.332;2023-09-18T13:52:27;5.95;;;2.53;;
25581;SDS011;13462;50.764;4.332;2023-09-18T13:54:54;3.65;;;2.20;;
25581;SDS011;13462;50.764;4.332;2023-09-18T13:57:20;8.38;;;3.00;;
25581;SDS011;13462;50.764;4.332;2023-09-18T13:59:47;4.25;;;2.10;;
25581;SDS011;13462;50.764;4.332;2023-09-18T14:02:14;4.20;;;2.60;;
25581;SDS011;13462;50.764;4.332;2023-09-18T14:04:40;3.65;;;2.45;;
25581;SDS011;13462;50.764;4.332;2023-09-18T14:07:06;4.50;;;2.35;;
25581;SDS011;13462;50.764;4.332;2023-09-18T14:09:32;5.00;;;2.53;;
25581;SDS011;13462;50.764;4.332;2023-09-18T14:11:58;7.85;;;2.85;;
25581;SDS011;13462;50.764;4.332;2023-09-18T14:14:24;5.53;;;2.63;;
25581;SDS011;13462;50.764;4.332;2023-09-18T14:16:51;4.78;;;2.88;;
25581;SDS011;13462;50.764;4.332;2023-09-18T14:19:17;5.80;;;3.03;;
25581;SDS011;13462;50.764;4.332;2023-09-18T14:21:43;4.05;;;2.60;;
25581;SDS011;13462;50.764;4.332;2023-09-18T14:24:09;6.55;;;2.92;;
25581;SDS011;13462;50.764;4.332;2023-09-18T14:26:35;5.30;;;2.90;;
25581;SDS011;13462;50.764;4.332;2023-09-18T14:29:06;6.25;;;3.03;;
25581;SDS011;13462;50.764;4.332;2023-09-18T14:31:33;5.45;;;2.92;;
25581;SDS011;13462;50.764;4.332;2023-09-18T14:33:58;8.35;;;2.80;;
25581;SDS011;13462;50.764;4.332;2023-09-18T14:36:25;5.55;;;3.33;;
25581;SDS011;13462;50.764;4.332;2023-09-18T14:38:51;5.68;;;3.30;;
25581;SDS011;13462;50.764;4.332;2023-09-18T14:41:17;3.17;;;2.88;;
25581;SDS011;13462;50.764;4.332;2023-09-18T14:43:44;6.55;;;3.38;;
25581;SDS011;13462;50.764;4.332;2023-09-18T14:46:10;4.50;;;3.53;;
25581;SDS011;13462;50.764;4.332;2023-09-18T14:48:36;6.95;;;3.65;;
25581;SDS011;13462;50.764;4.332;2023-09-18T14:51:02;6.10;;;3.83;;
25581;SDS011;13462;50.764;4.332;2023-09-18T14:53:28;5.10;;;3.45;;
25581;SDS011;13462;50.764;4.332;2023-09-18T14:55:53;7.25;;;3.45;;
25581;SDS011;13462;50.764;4.332;2023-09-18T14:58:20;5.20;;;2.97;;
25581;SDS011;13462;50.764;4.332;2023-09-18T15:00:48;4.90;;;2.95;;
25581;SDS011;13462;50.764;4.332;2023-09-18T15:03:14;5.60;;;3.15;;
25581;SDS011;13462;50.764;4.332;2023-09-18T15:05:40;5.57;;;3.00;;